sensor_id;sensor_type;location;lat;lon;timestamp;pressure;altitude;pressure_sealevel;temperature;humidity
6565;BME280;3316;44.118;27.258;2023-01-09T00:00:40;101608.06;;;7.15;100.00
6565;BME280;3316;44.118;27.258;2023-01-09T00:03:05;101594.97;;;7.15;100.00
6565;BME280;3316;44.118;27.258;2023-01-09T00:05:31;101613.31;;;7.16;100.00
6565;BME280;3316;44.118;27.258;2023-01-09T00:07:56;101604.63;;;7.17;100.00
6565;BME280;3316;44.118;27.258;2023-01-09T00:10:22;101601.91;;;7.13;100.00
6565;BME280;3316;44.118;27.258;2023-01-09T00:12:47;101595.75;;;7.11;100.00
6565;BME280;3316;44.118;27.258;2023-01-09T00:15:13;101617.66;;;7.16;100.00
6565;BME280;3316;44.118;27.258;2023-01-09T00:17:39;101614.91;;;7.10;100.00
6565;BME280;3316;44.118;27.258;2023-01-09T00:20:06;101601.84;;;7.10;100.00
6565;BME280;3316;44.118;27.258;2023-01-09T00:22:33;101560.41;;;6.86;100.00
6565;BME280;3316;44.118;27.258;2023-01-09T00:24:59;101618.44;;;7.12;100.00
6565;BME280;3316;44.118;27.258;2023-01-09T00:27:24;101609.69;;;7.10;100.00
6565;BME280;3316;44.118;27.258;2023-01-09T00:29:50;101593.03;;;7.06;100.00
6565;BME280;3316;44.118;27.258;2023-01-09T00:32:15;101551.66;;;6.86;100.00
6565;BME280;3316;44.118;27.258;2023-01-09T00:34:41;101581.75;;;7.09;100.00
6565;BME280;3316;44.118;27.258;2023-01-09T00:37:08;101574.81;;;7.11;100.00
6565;BME280;3316;44.118;27.258;2023-01-09T00:39:38;101591.47;;;7.16;100.00
6565;BME280;3316;44.118;27.258;2023-01-09T00:42:04;101591.47;;;7.16;100.00
6565;BME280;3316;44.118;27.258;2023-01-09T00:44:34;101578.41;;;7.16;100.00
6565;BME280;3316;44.118;27.258;2023-01-09T00:47:10;101591.56;;;7.20;100.00
6565;BME280;3316;44.118;27.258;2023-01-09T00:49:38;101578.50;;;7.22;100.00
6565;BME280;3316;44.118;27.258;2023-01-09T00:52:05;101586.38;;;7.22;100.00
6565;BME280;3316;44.118;27.258;2023-01-09T00:54:33;101591.56;;;7.19;100.00
6565;BME280;3316;44.118;27.258;2023-01-09T00:56:59;101587.25;;;7.22;100.00
6565;BME280;3316;44.118;27.258;2023-01-09T00:59:26;101561.94;;;7.22;100.00
6565;BME280;3316;44.118;27.258;2023-01-09T01:01:52;101574.19;;;7.24;100.00
6565;BME280;3316;44.118;27.258;2023-01-09T01:04:17;101582.03;;;7.24;100.00
6565;BME280;3316;44.118;27.258;2023-01-09T01:07:01;101547.75;;;7.10;100.00
6565;BME280;3316;44.118;27.258;2023-01-09T01:09:45;101561.97;;;7.23;100.00
6565;BME280;3316;44.118;27.258;2023-01-09T01:12:10;101562.91;;;7.27;100.00
6565;BME280;3316;44.118;27.258;2023-01-09T01:14:36;101538.22;;;7.14;100.00
6565;BME280;3316;44.118;27.258;2023-01-09T01:17:03;101543.47;;;7.14;100.00
6565;BME280;3316;44.118;27.258;2023-01-09T01:19:29;101536.59;;;7.19;100.00
6565;BME280;3316;44.118;27.258;2023-01-09T01:21:55;101548.09;;;7.27;100.00
6565;BME280;3316;44.118;27.258;2023-01-09T01:24:21;101549.69;;;7.19;100.00
6565;BME280;3316;44.118;27.258;2023-01-09T01:26:46;101539.34;;;7.28;100.00
6565;BME280;3316;44.118;27.258;2023-01-09T01:29:12;101532.44;;;7.32;100.00
6565;BME280;3316;44.118;27.258;2023-01-09T01:31:37;101529.88;;;7.33;100.00
6565;BME280;3316;44.118;27.258;2023-01-09T01:34:03;101522.72;;;7.25;100.00
6565;BME280;3316;44.118;27.258;2023-01-09T01:36:28;101523.53;;;7.22;100.00
6565;BME280;3316;44.118;27.258;2023-01-09T01:38:54;101521.00;;;7.25;100.00
6565;BME280;3316;44.118;27.258;2023-01-09T01:41:20;101483.09;;;7.02;100.00
6565;BME280;3316;44.118;27.258;2023-01-09T01:44:01;101526.16;;;7.22;100.00
6565;BME280;3316;44.118;27.258;2023-01-09T01:46:28;101526.13;;;7.20;100.00
6565;BME280;3316;44.118;27.258;2023-01-09T01:49:15;101528.78;;;7.22;100.00
6565;BME280;3316;44.118;27.258;2023-01-09T01:51:47;101541.00;;;7.22;100.00
6565;BME280;3316;44.118;27.258;2023-01-09T01:54:20;101499.84;;;7.13;100.00
6565;BME280;3316;44.118;27.258;2023-01-09T01:56:50;101512.16;;;7.20;100.00
6565;BME280;3316;44.118;27.258;2023-01-09T02:01:46;101489.28;;;7.08;100.00
6565;BME280;3316;44.118;27.258;2023-01-09T02:04:13;101519.06;;;7.15;100.00
6565;BME280;3316;44.118;27.258;2023-01-09T02:06:39;101489.34;;;7.11;100.00
6565;BME280;3316;44.118;27.258;2023-01-09T02:09:06;101444.47;;;6.89;100.00
6565;BME280;3316;44.118;27.258;2023-01-09T02:11:33;101504.28;;;7.17;100.00
6565;BME280;3316;44.118;27.258;2023-01-09T02:13:59;101498.91;;;7.08;100.00
6565;BME280;3316;44.118;27.258;2023-01-09T02:16:42;101499.75;;;7.08;100.00
6565;BME280;3316;44.118;27.258;2023-01-09T02:37:54;101475.16;;;6.99;100.00
6565;BME280;3316;44.118;27.258;2023-01-09T02:40:35;101494.34;;;6.98;100.00
6565;BME280;3316;44.118;27.258;2023-01-09T02:43:04;101486.50;;;6.98;100.00
6565;BME280;3316;44.118;27.258;2023-01-09T02:45:30;101475.16;;;6.97;100.00
6565;BME280;3316;44.118;27.258;2023-01-09T02:47:55;101465.47;;;6.92;100.00
6565;BME280;3316;44.118;27.258;2023-01-09T02:50:46;101476.84;;;6.95;100.00
6565;BME280;3316;44.118;27.258;2023-01-09T02:56:01;101460.16;;;6.89;100.00
6565;BME280;3316;44.118;27.258;2023-01-09T03:01:17;101470.66;;;6.90;100.00
6565;BME280;3316;44.118;27.258;2023-01-09T03:04:12;101471.63;;;6.95;100.00
6565;BME280;3316;44.118;27.258;2023-01-09T03:06:59;101486.53;;;6.99;100.00
6565;BME280;3316;44.118;27.258;2023-01-09T03:09:28;101456.69;;;6.90;100.00
6565;BME280;3316;44.118;27.258;2023-01-09T03:12:07;101466.41;;;6.97;100.00
6565;BME280;3316;44.118;27.258;2023-01-09T03:14:37;101461.09;;;6.92;100.00
6565;BME280;3316;44.118;27.258;2023-01-09T03:17:10;101441.91;;;6.90;100.00
6565;BME280;3316;44.118;27.258;2023-01-09T03:19:37;101483.88;;;6.98;100.00
6565;BME280;3316;44.118;27.258;2023-01-09T03:22:03;101471.53;;;6.92;100.00
6565;BME280;3316;44.118;27.258;2023-01-09T03:24:29;101469.03;;;6.97;100.00
6565;BME280;3316;44.118;27.258;2023-01-09T03:26:54;101452.41;;;6.93;100.00
6565;BME280;3316;44.118;27.258;2023-01-09T03:29:20;101449.69;;;6.89;100.00
6565;BME280;3316;44.118;27.258;2023-01-09T03:31:46;101435.66;;;6.84;100.00
6565;BME280;3316;44.118;27.258;2023-01-09T03:34:11;101443.66;;;6.93;100.00
6565;BME280;3316;44.118;27.258;2023-01-09T03:36:37;101447.06;;;6.89;100.00
6565;BME280;3316;44.118;27.258;2023-01-09T03:39:02;101447.84;;;6.82;100.00
6565;BME280;3316;44.118;27.258;2023-01-09T03:41:28;101453.22;;;6.92;100.00
6565;BME280;3316;44.118;27.258;2023-01-09T03:43:53;101437.41;;;6.85;100.00
6565;BME280;3316;44.118;27.258;2023-01-09T03:46:18;101405.66;;;6.64;100.00
6565;BME280;3316;44.118;27.258;2023-01-09T03:48:44;101463.63;;;6.86;100.00
6565;BME280;3316;44.118;27.258;2023-01-09T03:51:09;101436.47;;;6.81;100.00
6565;BME280;3316;44.118;27.258;2023-01-09T03:53:35;101464.38;;;6.81;100.00
6565;BME280;3316;44.118;27.258;2023-01-09T03:56:00;101470.59;;;6.86;100.00
6565;BME280;3316;44.118;27.258;2023-01-09T03:58:26;101480.22;;;6.88;100.00
6565;BME280;3316;44.118;27.258;2023-01-09T04:00:56;101448.66;;;6.79;100.00
6565;BME280;3316;44.118;27.258;2023-01-09T04:03:22;101472.38;;;6.88;100.00
6565;BME280;3316;44.118;27.258;2023-01-09T04:05:48;101464.59;;;6.93;100.00
6565;BME280;3316;44.118;27.258;2023-01-09T04:08:14;101473.31;;;6.92;100.00
6565;BME280;3316;44.118;27.258;2023-01-09T04:10:43;101446.16;;;6.87;100.00
6565;BME280;3316;44.118;27.258;2023-01-09T04:13:09;101443.44;;;6.81;100.00
6565;BME280;3316;44.118;27.258;2023-01-09T04:15:34;101454.75;;;6.78;100.00
6565;BME280;3316;44.118;27.258;2023-01-09T04:17:59;101467.78;;;6.77;100.00
6565;BME280;3316;44.118;27.258;2023-01-09T04:20:25;101476.69;;;6.86;100.00
6565;BME280;3316;44.118;27.258;2023-01-09T04:22:50;101482.88;;;6.90;100.00
6565;BME280;3316;44.118;27.258;2023-01-09T04:25:16;101486.28;;;6.87;100.00
6565;BME280;3316;44.118;27.258;2023-01-09T04:27:41;101490.50;;;6.79;100.00
6565;BME280;3316;44.118;27.258;2023-01-09T04:30:07;101496.75;;;6.86;100.00
6565;BME280;3316;44.118;27.258;2023-01-09T04:32:32;101477.41;;;6.79;100.00
6565;BME280;3316;44.118;27.258;2023-01-09T04:34:58;101493.09;;;6.78;100.00
6565;BME280;3316;44.118;27.258;2023-01-09T04:37:23;101495.72;;;6.79;100.00
6565;BME280;3316;44.118;27.258;2023-01-09T04:39:49;101487.91;;;6.81;100.00
6565;BME280;3316;44.118;27.258;2023-01-09T04:42:20;101475.63;;;6.77;100.00
6565;BME280;3316;44.118;27.258;2023-01-09T04:44:45;101478.22;;;6.75;100.00
6565;BME280;3316;44.118;27.258;2023-01-09T04:47:11;101491.38;;;6.80;100.00
6565;BME280;3316;44.118;27.258;2023-01-09T04:49:38;101480.84;;;6.77;100.00
6565;BME280;3316;44.118;27.258;2023-01-09T04:52:04;101491.31;;;6.77;100.00
6565;BME280;3316;44.118;27.258;2023-01-09T04:54:29;101477.41;;;6.79;100.00
6565;BME280;3316;44.118;27.258;2023-01-09T04:56:54;101457.19;;;6.69;100.00
6565;BME280;3316;44.118;27.258;2023-01-09T04:59:20;101487.06;;;6.82;100.00
6565;BME280;3316;44.118;27.258;2023-01-09T05:01:45;101448.44;;;6.67;100.00
6565;BME280;3316;44.118;27.258;2023-01-09T05:04:11;101478.34;;;6.81;100.00
6565;BME280;3316;44.118;27.258;2023-01-09T05:06:38;101434.38;;;6.61;100.00
6565;BME280;3316;44.118;27.258;2023-01-09T05:09:03;101473.09;;;6.81;100.00
6565;BME280;3316;44.118;27.258;2023-01-09T05:11:29;101485.22;;;6.76;100.00
6565;BME280;3316;44.118;27.258;2023-01-09T05:13:54;101474.81;;;6.79;100.00
6565;BME280;3316;44.118;27.258;2023-01-09T05:16:20;101474.00;;;6.82;100.00
6565;BME280;3316;44.118;27.258;2023-01-09T05:18:46;101483.81;;;6.95;100.00
6565;BME280;3316;44.118;27.258;2023-01-09T05:21:11;101481.97;;;6.89;100.00
6565;BME280;3316;44.118;27.258;2023-01-09T05:23:37;101474.09;;;6.86;100.00
6565;BME280;3316;44.118;27.258;2023-01-09T05:26:02;101495.91;;;6.88;100.00
6565;BME280;3316;44.118;27.258;2023-01-09T05:28:29;101461.75;;;6.81;100.00
6565;BME280;3316;44.118;27.258;2023-01-09T05:30:55;101489.81;;;6.89;100.00
6565;BME280;3316;44.118;27.258;2023-01-09T05:33:20;101500.38;;;6.94;100.00
6565;BME280;3316;44.118;27.258;2023-01-09T05:35:47;101479.38;;;6.91;100.00
6565;BME280;3316;44.118;27.258;2023-01-09T05:38:12;101488.97;;;6.90;100.00
6565;BME280;3316;44.118;27.258;2023-01-09T05:40:38;101474.91;;;6.84;100.00
6565;BME280;3316;44.118;27.258;2023-01-09T05:43:04;101482.84;;;6.88;100.00
6565;BME280;3316;44.118;27.258;2023-01-09T05:45:29;101500.38;;;6.94;100.00
6565;BME280;3316;44.118;27.258;2023-01-09T05:47:54;101481.19;;;6.93;100.00
6565;BME280;3316;44.118;27.258;2023-01-09T05:50:20;101493.47;;;6.99;100.00
6565;BME280;3316;44.118;27.258;2023-01-09T05:52:45;101470.59;;;6.87;100.00
6565;BME280;3316;44.118;27.258;2023-01-09T05:55:11;101497.81;;;6.98;100.00
6565;BME280;3316;44.118;27.258;2023-01-09T05:57:37;101487.31;;;6.94;100.00
6565;BME280;3316;44.118;27.258;2023-01-09T06:00:03;101478.56;;;6.95;100.00
6565;BME280;3316;44.118;27.258;2023-01-09T06:02:29;101496.19;;;7.03;100.00
6565;BME280;3316;44.118;27.258;2023-01-09T06:04:54;101497.69;;;7.42;100.00
6565;BME280;3316;44.118;27.258;2023-01-09T06:07:20;101499.28;;;7.87;100.00
6565;BME280;3316;44.118;27.258;2023-01-09T06:09:45;101487.69;;;8.30;100.00
6565;BME280;3316;44.118;27.258;2023-01-09T06:12:11;101506.25;;;8.48;100.00
6565;BME280;3316;44.118;27.258;2023-01-09T06:14:36;101498.44;;;8.53;100.00
6565;BME280;3316;44.118;27.258;2023-01-09T06:17:02;101539.25;;;9.06;100.00
6565;BME280;3316;44.118;27.258;2023-01-09T06:19:27;101512.53;;;9.51;100.00
6565;BME280;3316;44.118;27.258;2023-01-09T06:21:53;101471.28;;;9.38;100.00
6565;BME280;3316;44.118;27.258;2023-01-09T06:24:18;101495.28;;;9.89;100.00
6565;BME280;3316;44.118;27.258;2023-01-09T06:26:44;101513.97;;;10.36;100.00
6565;BME280;3316;44.118;27.258;2023-01-09T06:29:09;101516.75;;;10.75;100.00
6565;BME280;3316;44.118;27.258;2023-01-09T06:31:35;101499.28;;;11.00;100.00
6565;BME280;3316;44.118;27.258;2023-01-09T06:34:00;101503.56;;;10.69;100.00
6565;BME280;3316;44.118;27.258;2023-01-09T06:36:26;101498.41;;;11.04;100.00
6565;BME280;3316;44.118;27.258;2023-01-09T06:38:51;101500.19;;;11.36;100.00
6565;BME280;3316;44.118;27.258;2023-01-09T06:41:17;101493.13;;;11.87;100.00
6565;BME280;3316;44.118;27.258;2023-01-09T06:43:42;101504.56;;;11.55;100.00
6565;BME280;3316;44.118;27.258;2023-01-09T06:46:08;101503.69;;;11.75;100.00
6565;BME280;3316;44.118;27.258;2023-01-09T06:48:34;101504.59;;;11.58;100.00
6565;BME280;3316;44.118;27.258;2023-01-09T06:50:59;101498.31;;;12.21;100.00
6565;BME280;3316;44.118;27.258;2023-01-09T06:53:25;101485.97;;;12.31;100.00
6565;BME280;3316;44.118;27.258;2023-01-09T06:55:50;101493.00;;;12.38;100.00
6565;BME280;3316;44.118;27.258;2023-01-09T06:58:16;101498.25;;;12.41;100.00
6565;BME280;3316;44.118;27.258;2023-01-09T07:00:42;101483.22;;;12.55;100.00
6565;BME280;3316;44.118;27.258;2023-01-09T07:03:07;101488.69;;;12.04;100.00
6565;BME280;3316;44.118;27.258;2023-01-09T07:05:38;101496.19;;;13.00;100.00
6565;BME280;3316;44.118;27.258;2023-01-09T07:08:04;101476.38;;;12.15;100.00
6565;BME280;3316;44.118;27.258;2023-01-09T07:10:30;101472.81;;;12.26;100.00
6565;BME280;3316;44.118;27.258;2023-01-09T07:12:55;101472.66;;;12.55;100.00
6565;BME280;3316;44.118;27.258;2023-01-09T07:15:21;101473.28;;;13.05;100.00
6565;BME280;3316;44.118;27.258;2023-01-09T07:17:49;101427.72;;;12.67;100.00
6565;BME280;3316;44.118;27.258;2023-01-09T07:20:15;101455.50;;;13.22;100.00
6565;BME280;3316;44.118;27.258;2023-01-09T07:22:42;101459.34;;;12.76;100.00
6565;BME280;3316;44.118;27.258;2023-01-09T07:25:07;101476.94;;;12.83;100.00
6565;BME280;3316;44.118;27.258;2023-01-09T07:27:33;101433.63;;;13.10;100.00
6565;BME280;3316;44.118;27.258;2023-01-09T07:29:58;101438.88;;;13.13;100.00
6565;BME280;3316;44.118;27.258;2023-01-09T07:32:24;101444.47;;;12.60;100.00
6565;BME280;3316;44.118;27.258;2023-01-09T07:34:49;101428.72;;;13.62;100.00
6565;BME280;3316;44.118;27.258;2023-01-09T07:37:16;101436.31;;;13.01;100.00
6565;BME280;3316;44.118;27.258;2023-01-09T07:39:42;101457.63;;;12.71;100.00
6565;BME280;3316;44.118;27.258;2023-01-09T07:42:07;101452.97;;;13.13;100.00
6565;BME280;3316;44.118;27.258;2023-01-09T07:44:33;101420.47;;;13.92;100.00
6565;BME280;3316;44.118;27.258;2023-01-09T07:46:58;101443.59;;;15.08;96.74
6565;BME280;3316;44.118;27.258;2023-01-09T07:49:23;101437.94;;;14.08;96.22
6565;BME280;3316;44.118;27.258;2023-01-09T07:51:49;101437.22;;;14.64;96.55
6565;BME280;3316;44.118;27.258;2023-01-09T07:54:14;101436.31;;;14.65;95.17
6565;BME280;3316;44.118;27.258;2023-01-09T07:56:40;101441.16;;;14.34;95.13
6565;BME280;3316;44.118;27.258;2023-01-09T07:59:05;101424.31;;;14.41;96.13
6565;BME280;3316;44.118;27.258;2023-01-09T08:01:31;101436.22;;;14.72;94.64
6565;BME280;3316;44.118;27.258;2023-01-09T08:03:57;101446.53;;;14.25;95.95
6565;BME280;3316;44.118;27.258;2023-01-09T08:06:22;101413.91;;;13.47;100.00
6565;BME280;3316;44.118;27.258;2023-01-09T08:08:48;101448.88;;;14.51;97.29
6565;BME280;3316;44.118;27.258;2023-01-09T08:11:14;101441.19;;;14.33;97.65
6565;BME280;3316;44.118;27.258;2023-01-09T08:13:40;101470.16;;;13.63;100.00
6565;BME280;3316;44.118;27.258;2023-01-09T08:16:05;101446.25;;;14.48;97.52
6565;BME280;3316;44.118;27.258;2023-01-09T08:18:31;101451.63;;;14.43;98.60
6565;BME280;3316;44.118;27.258;2023-01-09T08:20:56;101457.97;;;14.27;96.85
6565;BME280;3316;44.118;27.258;2023-01-09T08:23:21;101471.78;;;13.76;99.47
6565;BME280;3316;44.118;27.258;2023-01-09T08:25:47;101451.00;;;14.18;100.00
6565;BME280;3316;44.118;27.258;2023-01-09T08:28:12;101392.47;;;14.44;95.16
6565;BME280;3316;44.118;27.258;2023-01-09T08:30:38;101471.66;;;14.64;96.96
6565;BME280;3316;44.118;27.258;2023-01-09T08:33:04;101453.53;;;14.94;93.32
6565;BME280;3316;44.118;27.258;2023-01-09T08:35:30;101470.34;;;15.98;86.02
6565;BME280;3316;44.118;27.258;2023-01-09T08:37:55;101477.91;;;14.58;91.02
6565;BME280;3316;44.118;27.258;2023-01-09T08:40:20;101458.31;;;14.00;96.83
6565;BME280;3316;44.118;27.258;2023-01-09T08:42:46;101444.16;;;14.01;98.06
6565;BME280;3316;44.118;27.258;2023-01-09T08:45:31;101460.88;;;14.04;97.27
6565;BME280;3316;44.118;27.258;2023-01-09T08:48:15;101468.38;;;13.65;100.00
6565;BME280;3316;44.118;27.258;2023-01-09T08:50:41;101430.38;;;13.75;99.32
6565;BME280;3316;44.118;27.258;2023-01-09T08:53:08;101451.13;;;14.09;97.19
6565;BME280;3316;44.118;27.258;2023-01-09T08:55:33;101436.91;;;14.18;96.99
6565;BME280;3316;44.118;27.258;2023-01-09T08:57:59;101456.19;;;14.31;96.09
6565;BME280;3316;44.118;27.258;2023-01-09T09:00:25;101438.16;;;15.16;90.11
6565;BME280;3316;44.118;27.258;2023-01-09T09:02:54;101435.69;;;15.07;90.60
6565;BME280;3316;44.118;27.258;2023-01-09T09:05:20;101446.34;;;15.57;83.83
6565;BME280;3316;44.118;27.258;2023-01-09T09:07:48;101429.50;;;15.60;85.61
6565;BME280;3316;44.118;27.258;2023-01-09T09:10:16;101425.09;;;15.59;85.10
6565;BME280;3316;44.118;27.258;2023-01-09T09:12:42;101424.13;;;16.09;81.08
6565;BME280;3316;44.118;27.258;2023-01-09T09:15:09;101440.25;;;16.41;78.16
6565;BME280;3316;44.118;27.258;2023-01-09T09:17:38;101414.78;;;16.73;75.58
6565;BME280;3316;44.118;27.258;2023-01-09T09:20:05;101433.34;;;15.39;80.49
6565;BME280;3316;44.118;27.258;2023-01-09T09:22:31;101415.84;;;16.24;76.63
6565;BME280;3316;44.118;27.258;2023-01-09T09:24:56;101421.22;;;17.00;72.13
6565;BME280;3316;44.118;27.258;2023-01-09T09:27:22;101403.63;;;17.30;69.76
6565;BME280;3316;44.118;27.258;2023-01-09T09:29:47;101459.25;;;16.21;72.93
6565;BME280;3316;44.118;27.258;2023-01-09T09:32:13;101378.41;;;15.49;77.46
6565;BME280;3316;44.118;27.258;2023-01-09T09:34:38;101414.75;;;14.89;80.44
6565;BME280;3316;44.118;27.258;2023-01-09T09:37:04;101413.84;;;14.91;81.34
6565;BME280;3316;44.118;27.258;2023-01-09T09:39:29;101412.03;;;15.47;80.95
6565;BME280;3316;44.118;27.258;2023-01-09T09:47:40;101352.72;;;16.35;73.10
6565;BME280;3316;44.118;27.258;2023-01-09T09:55:38;101393.16;;;16.08;72.15
6565;BME280;3316;44.118;27.258;2023-01-09T09:58:19;101374.91;;;16.73;69.59
6565;BME280;3316;44.118;27.258;2023-01-09T10:00:48;101350.44;;;17.30;65.26
6565;BME280;3316;44.118;27.258;2023-01-09T10:03:24;101376.00;;;15.34;73.69
6565;BME280;3316;44.118;27.258;2023-01-09T10:05:51;101353.13;;;14.78;79.99
6565;BME280;3316;44.118;27.258;2023-01-09T10:10:56;101340.28;;;16.38;71.59
6565;BME280;3316;44.118;27.258;2023-01-09T10:13:23;101335.78;;;16.78;66.84
6565;BME280;3316;44.118;27.258;2023-01-09T10:24:53;101327.38;;;16.97;72.66
6565;BME280;3316;44.118;27.258;2023-01-09T10:28:02;101316.94;;;16.52;70.74
6565;BME280;3316;44.118;27.258;2023-01-09T10:30:35;101316.16;;;17.18;66.27
6565;BME280;3316;44.118;27.258;2023-01-09T10:38:38;101306.41;;;16.84;66.06
6565;BME280;3316;44.118;27.258;2023-01-09T10:41:22;101309.94;;;16.85;66.48
6565;BME280;3316;44.118;27.258;2023-01-09T10:46:44;101284.69;;;15.91;69.78
6565;BME280;3316;44.118;27.258;2023-01-09T10:49:22;101249.53;;;16.20;66.51
6565;BME280;3316;44.118;27.258;2023-01-09T10:54:19;101286.50;;;16.27;66.37
6565;BME280;3316;44.118;27.258;2023-01-09T10:59:31;101300.09;;;16.14;67.09
6565;BME280;3316;44.118;27.258;2023-01-09T11:01:57;101285.81;;;16.21;66.92
6565;BME280;3316;44.118;27.258;2023-01-09T11:04:26;101286.16;;;16.04;68.58
6565;BME280;3316;44.118;27.258;2023-01-09T11:07:17;101266.75;;;16.40;66.16
6565;BME280;3316;44.118;27.258;2023-01-09T11:10:00;101299.16;;;16.54;65.62
6565;BME280;3316;44.118;27.258;2023-01-09T11:12:31;101266.19;;;17.29;63.43
6565;BME280;3316;44.118;27.258;2023-01-09T11:17:43;101258.78;;;16.75;64.71
6565;BME280;3316;44.118;27.258;2023-01-09T11:20:29;101266.44;;;16.87;62.91
6565;BME280;3316;44.118;27.258;2023-01-09T11:22:57;101246.56;;;16.68;62.22
6565;BME280;3316;44.118;27.258;2023-01-09T11:25:25;101238.66;;;15.92;64.32
6565;BME280;3316;44.118;27.258;2023-01-09T11:30:30;101252.22;;;16.18;64.62
6565;BME280;3316;44.118;27.258;2023-01-09T11:32:58;101237.03;;;16.60;64.94
6565;BME280;3316;44.118;27.258;2023-01-09T11:35:31;101232.03;;;16.83;63.92
6565;BME280;3316;44.118;27.258;2023-01-09T11:38:13;101238.81;;;16.93;62.01
6565;BME280;3316;44.118;27.258;2023-01-09T11:40:48;101244.75;;;15.97;65.05
6565;BME280;3316;44.118;27.258;2023-01-09T11:43:20;101240.00;;;16.48;64.80
6565;BME280;3316;44.118;27.258;2023-01-09T11:45:52;101212.25;;;15.87;65.58
6565;BME280;3316;44.118;27.258;2023-01-09T11:48:52;101251.44;;;16.51;64.06
6565;BME280;3316;44.118;27.258;2023-01-09T11:51:22;101240.31;;;17.03;60.58
6565;BME280;3316;44.118;27.258;2023-01-09T11:54:04;101251.66;;;15.64;64.10
6565;BME280;3316;44.118;27.258;2023-01-09T11:56:30;101246.66;;;15.05;67.61
6565;BME280;3316;44.118;27.258;2023-01-09T11:58:58;101239.06;;;14.85;67.78
6565;BME280;3316;44.118;27.258;2023-01-09T12:04:47;101233.81;;;16.11;65.18
6565;BME280;3316;44.118;27.258;2023-01-09T12:27:08;101228.75;;;14.15;75.03
6565;BME280;3316;44.118;27.258;2023-01-09T12:35:45;101251.72;;;14.13;75.48
6565;BME280;3316;44.118;27.258;2023-01-09T12:49:46;101196.69;;;13.77;78.76
6565;BME280;3316;44.118;27.258;2023-01-09T12:52:25;101189.53;;;13.84;76.95
6565;BME280;3316;44.118;27.258;2023-01-09T12:57:31;101185.00;;;13.92;77.03
6565;BME280;3316;44.118;27.258;2023-01-09T13:00:17;101182.81;;;13.63;75.73
6565;BME280;3316;44.118;27.258;2023-01-09T13:03:05;101178.41;;;13.62;76.80
6565;BME280;3316;44.118;27.258;2023-01-09T13:05:36;101189.78;;;13.66;75.57
6565;BME280;3316;44.118;27.258;2023-01-09T13:08:10;101194.09;;;13.74;75.33
6565;BME280;3316;44.118;27.258;2023-01-09T13:10:41;101132.75;;;13.51;73.21
6565;BME280;3316;44.118;27.258;2023-01-09T13:15:44;101180.78;;;13.80;73.70
6565;BME280;3316;44.118;27.258;2023-01-09T13:20:59;101176.59;;;13.64;73.45
6565;BME280;3316;44.118;27.258;2023-01-09T13:23:48;101193.19;;;13.77;74.09
6565;BME280;3316;44.118;27.258;2023-01-09T13:26:23;101205.66;;;13.66;74.25
6565;BME280;3316;44.118;27.258;2023-01-09T13:28:56;101192.91;;;13.34;76.30
6565;BME280;3316;44.118;27.258;2023-01-09T13:34:23;101204.97;;;13.53;76.26
6565;BME280;3316;44.118;27.258;2023-01-09T13:36:52;101175.34;;;13.27;77.08
6565;BME280;3316;44.118;27.258;2023-01-09T13:39:21;101209.59;;;13.37;78.20
6565;BME280;3316;44.118;27.258;2023-01-09T13:41:51;101189.31;;;13.36;78.42
6565;BME280;3316;44.118;27.258;2023-01-09T13:44:35;101188.53;;;13.28;79.19
6565;BME280;3316;44.118;27.258;2023-01-09T13:47:01;101189.56;;;13.17;81.14
6565;BME280;3316;44.118;27.258;2023-01-09T13:59:53;101179.38;;;12.82;90.91
6565;BME280;3316;44.118;27.258;2023-01-09T14:05:17;101165.50;;;12.64;93.26
6565;BME280;3316;44.118;27.258;2023-01-09T14:08:16;101167.28;;;12.60;94.20
6565;BME280;3316;44.118;27.258;2023-01-09T14:13:15;101159.50;;;12.48;93.54
6565;BME280;3316;44.118;27.258;2023-01-09T14:15:43;101150.63;;;12.53;94.44
6565;BME280;3316;44.118;27.258;2023-01-09T14:18:21;101146.38;;;12.39;93.83
6565;BME280;3316;44.118;27.258;2023-01-09T14:20:57;101138.56;;;12.28;94.30
6565;BME280;3316;44.118;27.258;2023-01-09T14:23:24;101135.09;;;12.22;95.49
6565;BME280;3316;44.118;27.258;2023-01-09T14:25:51;101136.97;;;12.09;94.71
6565;BME280;3316;44.118;27.258;2023-01-09T14:28:22;101133.53;;;12.03;95.05
6565;BME280;3316;44.118;27.258;2023-01-09T14:35:51;101121.41;;;11.78;96.74
6565;BME280;3316;44.118;27.258;2023-01-09T14:38:35;101118.81;;;11.69;97.34
6565;BME280;3316;44.118;27.258;2023-01-09T14:41:18;101119.69;;;11.64;98.79
6565;BME280;3316;44.118;27.258;2023-01-09T14:43:55;101112.78;;;11.54;98.23
6565;BME280;3316;44.118;27.258;2023-01-09T14:46:30;101133.88;;;11.48;97.86
6565;BME280;3316;44.118;27.258;2023-01-09T14:49:11;101123.38;;;11.39;96.97
6565;BME280;3316;44.118;27.258;2023-01-09T14:51:44;101138.31;;;11.37;96.27
6565;BME280;3316;44.118;27.258;2023-01-09T14:54:36;101121.75;;;11.23;96.24
6565;BME280;3316;44.118;27.258;2023-01-09T14:57:02;101135.81;;;11.16;96.46
6565;BME280;3316;44.118;27.258;2023-01-09T14:59:28;101134.09;;;11.09;96.75
6565;BME280;3316;44.118;27.258;2023-01-09T15:01:54;101129.75;;;11.04;96.72
6565;BME280;3316;44.118;27.258;2023-01-09T15:04:35;101113.94;;;10.96;96.44
6565;BME280;3316;44.118;27.258;2023-01-09T15:07:03;101121.03;;;10.82;96.55
6565;BME280;3316;44.118;27.258;2023-01-09T15:09:43;101118.41;;;10.79;96.10
6565;BME280;3316;44.118;27.258;2023-01-09T15:12:17;101120.19;;;10.74;95.36
6565;BME280;3316;44.118;27.258;2023-01-09T15:14:45;101121.06;;;10.73;95.63
6565;BME280;3316;44.118;27.258;2023-01-09T15:17:26;101124.59;;;10.64;95.22
6565;BME280;3316;44.118;27.258;2023-01-09T15:19:52;101108.00;;;10.49;94.71
6565;BME280;3316;44.118;27.258;2023-01-09T15:24:49;101143.03;;;10.58;93.96
6565;BME280;3316;44.118;27.258;2023-01-09T15:27:16;101118.47;;;10.52;93.81
6565;BME280;3316;44.118;27.258;2023-01-09T15:29:46;101126.41;;;10.44;95.23
6565;BME280;3316;44.118;27.258;2023-01-09T15:34:45;101114.16;;;10.37;95.71